createdAt,value
2022-08-29T00:08:31.384Z,2348.54823
2022-08-29T00:23:33.621Z,2096.2968
2022-08-29T00:38:35.868Z,2047.75738
2022-08-29T00:53:38.109Z,1935.70501
2022-08-29T01:08:40.341Z,1803.69712
2022-08-29T01:23:42.572Z,1754.49523
2022-08-29T01:38:44.807Z,1596.16519
2022-08-29T01:53:47.022Z,1632.06508
2022-08-29T02:08:49.196Z,1722.45941
2022-08-29T02:23:51.612Z,1622.70692
2022-08-29T02:38:53.840Z,1619.92036
2022-08-29T02:53:56.148Z,1433.6378
2022-08-29T03:08:58.404Z,1328.63901
2022-08-29T03:24:00.830Z,1403.77035
2022-08-29T03:39:03.039Z,1352.77298
2022-08-29T03:54:05.253Z,1315.05627
2022-08-29T04:09:07.724Z,1204.25582
2022-08-29T04:24:09.977Z,1142.05054
2022-08-29T04:39:12.221Z,1213.55111
2022-08-29T04:54:15.692Z,1211.47311
2022-08-29T05:09:18.145Z,1194.09333
2022-08-29T05:24:20.296Z,1148.53946
2022-08-29T05:39:22.485Z,1106.33358
2022-08-29T05:54:24.688Z,1109.80442
2022-08-29T06:09:32.653Z,1134.72384
2022-08-29T06:24:34.818Z,1150.40701
2022-08-29T06:39:37.047Z,1108.06628
2022-08-29T06:54:39.261Z,1076.04613
2022-08-29T07:09:41.708Z,993.68028
2022-08-29T07:24:44.038Z,1004.25884
2022-08-29T07:39:46.261Z,990.20344
2022-08-29T07:54:48.550Z,999.29429
2022-08-29T08:09:50.773Z,1050.48305
2022-08-29T08:24:52.972Z,1067.92503
2022-08-29T08:39:55.373Z,1028.34352
2022-08-29T08:54:57.630Z,1007.11794
2022-08-29T09:09:59.836Z,999.29429
2022-08-29T09:25:02.030Z,1003.5466
2022-08-29T09:40:04.362Z,963.89696
2022-08-29T09:55:06.591Z,961.93116
2022-08-29T10:10:08.795Z,941.45093
2022-08-29T10:25:11.190Z,914.08319
2022-08-29T10:40:17.563Z,904.15385
2022-08-29T10:55:20.173Z,942.07773
2022-08-29T11:10:22.334Z,923.02724
2022-08-29T11:25:24.674Z,911.7273
2022-08-29T11:40:48.405Z,875.61931
2022-08-29T11:55:51.254Z,876.70434
2022-08-29T12:10:53.471Z,889.9376
2022-08-29T12:26:15.819Z,892.18209
2022-08-29T12:41:24.060Z,860.70609
2022-08-29T12:56:26.289Z,849.34023
2022-08-29T13:11:28.541Z,865.44392
2022-08-29T13:26:30.812Z,835.30156
2022-08-29T13:41:33.033Z,809.03423
2022-08-29T13:56:35.296Z,768.18725
2022-08-29T14:11:37.477Z,778.32833
2022-08-29T14:26:39.640Z,826.03669
2022-08-29T14:41:41.931Z,803.97777
2022-08-29T14:56:48.845Z,794.05212
2022-08-29T15:11:52.170Z,920.62509
2022-08-29T15:26:54.479Z,965.21196
2022-08-29T15:41:56.693Z,1020.18796
2022-08-29T15:56:59.010Z,1116.81187
2022-08-29T16:12:01.304Z,1212.51122
2022-08-29T16:27:03.526Z,1282.86542
2022-08-29T16:42:05.714Z,1261.14133
2022-08-29T16:57:07.924Z,1258.8973
2022-08-29T17:12:10.097Z,1282.86542
2022-08-29T17:27:12.311Z,1426.4118
2022-08-29T17:42:14.776Z,1585.43467
2022-08-29T17:57:17.117Z,1635.83864
2022-08-29T18:12:19.323Z,1685.52759
2022-08-29T18:27:21.542Z,1866.75511
2022-08-29T18:42:39.303Z,1841.24968
2022-08-29T18:57:43.003Z,1777.63869
2022-08-29T19:12:46.929Z,1938.35666
2022-08-29T19:27:49.209Z,1990.15521
2022-08-29T19:42:51.418Z,1908.2945
2022-08-29T19:57:53.629Z,1825.80695
2022-08-29T20:12:55.830Z,1768.7505
2022-08-29T20:27:58.195Z,1733.00723
2022-08-29T20:43:00.393Z,1896.78334
2022-08-29T20:58:02.684Z,2028.67434
2022-08-29T21:13:05.135Z,2115.09766
2022-08-29T21:28:07.349Z,1966.644
2022-08-29T21:43:09.934Z,1741.53896
2022-08-29T21:58:15.486Z,1970.75259
2022-08-29T22:13:17.971Z,2113.51805
2022-08-29T22:28:20.407Z,2160.30585
2022-08-29T22:43:22.696Z,2235.38755
2022-08-29T22:58:24.891Z,2127.82005
2022-08-29T23:13:27.083Z,2027.22113
2022-08-29T23:28:33.419Z,1983.182
2022-08-29T23:43:36.754Z,1980.40638
2022-08-29T23:58:39.371Z,1976.25748
